sensor_id;sensor_type;location;lat;lon;timestamp;temperature;humidity
13412;DHT22;67102;51.666;6.880;2023-03-13T00:00:16;14.60;83.20
13412;DHT22;67102;51.666;6.880;2023-03-13T00:02:43;14.60;83.10
13412;DHT22;67102;51.666;6.880;2023-03-13T00:05:10;14.60;84.10
13412;DHT22;67102;51.666;6.880;2023-03-13T00:07:37;14.70;83.40
13412;DHT22;67102;51.666;6.880;2023-03-13T00:10:03;14.70;83.40
13412;DHT22;67102;51.666;6.880;2023-03-13T00:12:30;14.70;83.70
13412;DHT22;67102;51.666;6.880;2023-03-13T00:14:56;14.70;83.80
13412;DHT22;67102;51.666;6.880;2023-03-13T00:17:22;14.70;83.80
13412;DHT22;67102;51.666;6.880;2023-03-13T00:19:49;14.60;83.90
13412;DHT22;67102;51.666;6.880;2023-03-13T00:22:17;14.70;84.00
13412;DHT22;67102;51.666;6.880;2023-03-13T00:24:44;14.70;84.00
13412;DHT22;67102;51.666;6.880;2023-03-13T00:27:10;14.70;84.00
13412;DHT22;67102;51.666;6.880;2023-03-13T00:29:37;14.60;84.00
13412;DHT22;67102;51.666;6.880;2023-03-13T00:32:03;14.70;85.00
13412;DHT22;67102;51.666;6.880;2023-03-13T00:34:30;14.60;84.30
13412;DHT22;67102;51.666;6.880;2023-03-13T00:36:55;14.60;85.20
13412;DHT22;67102;51.666;6.880;2023-03-13T00:39:23;14.60;85.20
13412;DHT22;67102;51.666;6.880;2023-03-13T00:41:49;14.60;84.60
13412;DHT22;67102;51.666;6.880;2023-03-13T00:44:15;14.60;84.60
13412;DHT22;67102;51.666;6.880;2023-03-13T00:46:41;14.60;84.70
13412;DHT22;67102;51.666;6.880;2023-03-13T00:49:07;14.50;84.80
13412;DHT22;67102;51.666;6.880;2023-03-13T00:51:33;14.60;85.00
13412;DHT22;67102;51.666;6.880;2023-03-13T00:53:59;14.50;85.10
13412;DHT22;67102;51.666;6.880;2023-03-13T00:56:27;14.50;85.10
13412;DHT22;67102;51.666;6.880;2023-03-13T00:58:53;14.50;85.30
13412;DHT22;67102;51.666;6.880;2023-03-13T01:01:20;14.50;85.40
13412;DHT22;67102;51.666;6.880;2023-03-13T01:03:49;14.40;85.40
13412;DHT22;67102;51.666;6.880;2023-03-13T01:06:18;14.40;85.60
13412;DHT22;67102;51.666;6.880;2023-03-13T01:08:46;14.40;85.80
13412;DHT22;67102;51.666;6.880;2023-03-13T01:11:13;14.40;85.90
13412;DHT22;67102;51.666;6.880;2023-03-13T01:13:41;14.40;86.00
13412;DHT22;67102;51.666;6.880;2023-03-13T01:16:09;14.40;87.10
13412;DHT22;67102;51.666;6.880;2023-03-13T01:18:37;14.30;86.30
13412;DHT22;67102;51.666;6.880;2023-03-13T01:21:05;14.30;86.40
13412;DHT22;67102;51.666;6.880;2023-03-13T01:23:31;14.30;86.70
13412;DHT22;67102;51.666;6.880;2023-03-13T01:25:57;14.30;86.80
13412;DHT22;67102;51.666;6.880;2023-03-13T01:28:24;14.40;87.00
13412;DHT22;67102;51.666;6.880;2023-03-13T01:30:52;14.40;87.00
13412;DHT22;67102;51.666;6.880;2023-03-13T01:33:18;14.40;87.20
13412;DHT22;67102;51.666;6.880;2023-03-13T01:35:44;14.40;87.20
13412;DHT22;67102;51.666;6.880;2023-03-13T01:38:10;14.40;87.40
13412;DHT22;67102;51.666;6.880;2023-03-13T01:40:40;14.40;87.40
13412;DHT22;67102;51.666;6.880;2023-03-13T01:43:18;14.40;87.50
13412;DHT22;67102;51.666;6.880;2023-03-13T01:48:41;14.40;87.90
13412;DHT22;67102;51.666;6.880;2023-03-13T01:51:13;14.40;87.90
13412;DHT22;67102;51.666;6.880;2023-03-13T01:53:45;14.30;88.40
13412;DHT22;67102;51.666;6.880;2023-03-13T01:56:16;14.30;88.50
13412;DHT22;67102;51.666;6.880;2023-03-13T01:58:46;14.30;88.50
13412;DHT22;67102;51.666;6.880;2023-03-13T02:01:14;14.20;88.40
13412;DHT22;67102;51.666;6.880;2023-03-13T02:03:41;14.30;88.20
13412;DHT22;67102;51.666;6.880;2023-03-13T02:06:08;14.20;88.20
13412;DHT22;67102;51.666;6.880;2023-03-13T02:08:36;14.20;88.20
13412;DHT22;67102;51.666;6.880;2023-03-13T02:11:09;14.20;88.60
13412;DHT22;67102;51.666;6.880;2023-03-13T02:13:41;14.10;88.80
13412;DHT22;67102;51.666;6.880;2023-03-13T02:16:08;14.10;89.10
13412;DHT22;67102;51.666;6.880;2023-03-13T02:18:36;14.10;89.20
13412;DHT22;67102;51.666;6.880;2023-03-13T02:21:09;14.00;89.40
13412;DHT22;67102;51.666;6.880;2023-03-13T02:23:42;14.10;89.80
13412;DHT22;67102;51.666;6.880;2023-03-13T02:26:16;14.00;90.00
13412;DHT22;67102;51.666;6.880;2023-03-13T02:28:43;14.00;90.20
13412;DHT22;67102;51.666;6.880;2023-03-13T02:31:09;14.00;90.30
13412;DHT22;67102;51.666;6.880;2023-03-13T02:33:39;14.00;90.40
13412;DHT22;67102;51.666;6.880;2023-03-13T02:36:06;14.00;90.50
13412;DHT22;67102;51.666;6.880;2023-03-13T02:38:36;14.10;90.70
13412;DHT22;67102;51.666;6.880;2023-03-13T02:41:05;13.90;90.80
13412;DHT22;67102;51.666;6.880;2023-03-13T02:43:34;13.90;90.80
13412;DHT22;67102;51.666;6.880;2023-03-13T02:46:05;13.90;90.90
13412;DHT22;67102;51.666;6.880;2023-03-13T02:48:34;14.00;91.00
13412;DHT22;67102;51.666;6.880;2023-03-13T02:51:04;14.10;91.30
13412;DHT22;67102;51.666;6.880;2023-03-13T02:53:32;14.00;91.30
13412;DHT22;67102;51.666;6.880;2023-03-13T02:58:26;14.40;91.70
13412;DHT22;67102;51.666;6.880;2023-03-13T03:00:53;14.50;91.90
13412;DHT22;67102;51.666;6.880;2023-03-13T03:03:19;14.10;92.00
13412;DHT22;67102;51.666;6.880;2023-03-13T03:05:45;13.90;91.80
13412;DHT22;67102;51.666;6.880;2023-03-13T03:08:11;14.50;92.00
13412;DHT22;67102;51.666;6.880;2023-03-13T03:13:03;14.20;91.80
13412;DHT22;67102;51.666;6.880;2023-03-13T03:17:57;14.40;91.90
13412;DHT22;67102;51.666;6.880;2023-03-13T03:20:22;14.30;92.00
13412;DHT22;67102;51.666;6.880;2023-03-13T03:30:09;14.40;92.30
13412;DHT22;67102;51.666;6.880;2023-03-13T03:32:35;14.50;92.40
13412;DHT22;67102;51.666;6.880;2023-03-13T03:35:03;14.50;92.40
13412;DHT22;67102;51.666;6.880;2023-03-13T03:39:56;14.30;92.50
13412;DHT22;67102;51.666;6.880;2023-03-13T03:42:22;14.60;92.70
13412;DHT22;67102;51.666;6.880;2023-03-13T03:44:48;14.50;92.70
13412;DHT22;67102;51.666;6.880;2023-03-13T03:52:08;14.60;93.60
13412;DHT22;67102;51.666;6.880;2023-03-13T03:57:00;14.60;94.10
13412;DHT22;67102;51.666;6.880;2023-03-13T04:01:52;14.60;94.60
13412;DHT22;67102;51.666;6.880;2023-03-13T04:04:18;14.40;94.60
13412;DHT22;67102;51.666;6.880;2023-03-13T04:09:12;14.70;95.00
13412;DHT22;67102;51.666;6.880;2023-03-13T04:11:38;14.20;95.50
13412;DHT22;67102;51.666;6.880;2023-03-13T04:14:04;14.60;95.80
13412;DHT22;67102;51.666;6.880;2023-03-13T04:18:56;14.70;95.80
13412;DHT22;67102;51.666;6.880;2023-03-13T04:21:22;15.00;96.20
13412;DHT22;67102;51.666;6.880;2023-03-13T04:26:15;14.80;95.70
13412;DHT22;67102;51.666;6.880;2023-03-13T04:28:41;14.50;95.60
13412;DHT22;67102;51.666;6.880;2023-03-13T04:31:07;14.90;96.00
13412;DHT22;67102;51.666;6.880;2023-03-13T04:35:59;14.80;96.20
13412;DHT22;67102;51.666;6.880;2023-03-13T04:38:25;14.70;96.30
13412;DHT22;67102;51.666;6.880;2023-03-13T04:43:19;14.80;95.90
13412;DHT22;67102;51.666;6.880;2023-03-13T04:45:45;14.80;95.90
13412;DHT22;67102;51.666;6.880;2023-03-13T04:48:11;15.10;97.70
13412;DHT22;67102;51.666;6.880;2023-03-13T04:50:37;15.30;99.40
13412;DHT22;67102;51.666;6.880;2023-03-13T04:53:03;15.10;96.00
13412;DHT22;67102;51.666;6.880;2023-03-13T04:55:29;14.90;96.00
13412;DHT22;67102;51.666;6.880;2023-03-13T05:00:23;15.10;96.00
13412;DHT22;67102;51.666;6.880;2023-03-13T05:02:49;15.00;96.60
13412;DHT22;67102;51.666;6.880;2023-03-13T05:05:15;15.00;96.50
13412;DHT22;67102;51.666;6.880;2023-03-13T05:07:41;15.00;96.60
13412;DHT22;67102;51.666;6.880;2023-03-13T05:10:08;15.00;96.60
13412;DHT22;67102;51.666;6.880;2023-03-13T05:12:34;16.10;97.00
13412;DHT22;67102;51.666;6.880;2023-03-13T05:15:00;15.00;96.60
13412;DHT22;67102;51.666;6.880;2023-03-13T05:17:28;15.00;96.70
13412;DHT22;67102;51.666;6.880;2023-03-13T05:19:54;15.00;97.00
13412;DHT22;67102;51.666;6.880;2023-03-13T05:22:20;15.00;97.10
13412;DHT22;67102;51.666;6.880;2023-03-13T05:24:46;15.00;97.10
13412;DHT22;67102;51.666;6.880;2023-03-13T05:27:12;15.00;97.20
13412;DHT22;67102;51.666;6.880;2023-03-13T05:29:38;15.00;97.30
13412;DHT22;67102;51.666;6.880;2023-03-13T05:32:04;15.00;97.40
13412;DHT22;67102;51.666;6.880;2023-03-13T05:34:32;15.00;97.10
13412;DHT22;67102;51.666;6.880;2023-03-13T05:36:58;15.00;97.20
13412;DHT22;67102;51.666;6.880;2023-03-13T05:41:50;14.90;98.30
13412;DHT22;67102;51.666;6.880;2023-03-13T05:46:43;15.20;97.30
13412;DHT22;67102;51.666;6.880;2023-03-13T05:49:09;15.30;96.90
13412;DHT22;67102;51.666;6.880;2023-03-13T05:51:36;15.20;96.80
13412;DHT22;67102;51.666;6.880;2023-03-13T05:54:02;15.20;97.00
13412;DHT22;67102;51.666;6.880;2023-03-13T05:56:28;15.20;96.90
13412;DHT22;67102;51.666;6.880;2023-03-13T05:58:54;15.20;96.90
13412;DHT22;67102;51.666;6.880;2023-03-13T06:01:20;15.20;97.00
13412;DHT22;67102;51.666;6.880;2023-03-13T06:03:46;15.20;96.90
13412;DHT22;67102;51.666;6.880;2023-03-13T06:06:12;15.20;96.90
13412;DHT22;67102;51.666;6.880;2023-03-13T06:08:39;15.20;96.90
13412;DHT22;67102;51.666;6.880;2023-03-13T06:11:05;15.20;97.00
13412;DHT22;67102;51.666;6.880;2023-03-13T06:13:31;15.30;97.00
13412;DHT22;67102;51.666;6.880;2023-03-13T06:15:57;15.30;96.90
13412;DHT22;67102;51.666;6.880;2023-03-13T06:18:24;15.30;96.90
13412;DHT22;67102;51.666;6.880;2023-03-13T06:20:55;15.30;96.80
13412;DHT22;67102;51.666;6.880;2023-03-13T06:23:22;15.40;96.90
13412;DHT22;67102;51.666;6.880;2023-03-13T06:25:49;15.40;96.80
13412;DHT22;67102;51.666;6.880;2023-03-13T06:28:15;15.40;96.80
13412;DHT22;67102;51.666;6.880;2023-03-13T06:30:42;15.40;96.80
13412;DHT22;67102;51.666;6.880;2023-03-13T06:33:08;15.40;96.70
13412;DHT22;67102;51.666;6.880;2023-03-13T06:35:34;15.50;96.70
13412;DHT22;67102;51.666;6.880;2023-03-13T06:38:00;15.50;96.60
13412;DHT22;67102;51.666;6.880;2023-03-13T06:40:26;15.50;96.60
13412;DHT22;67102;51.666;6.880;2023-03-13T06:42:53;15.60;96.50
13412;DHT22;67102;51.666;6.880;2023-03-13T06:45:19;15.60;96.40
13412;DHT22;67102;51.666;6.880;2023-03-13T06:47:45;15.70;96.30
13412;DHT22;67102;51.666;6.880;2023-03-13T06:50:11;15.70;96.20
13412;DHT22;67102;51.666;6.880;2023-03-13T06:52:37;15.80;96.10
13412;DHT22;67102;51.666;6.880;2023-03-13T06:55:04;15.80;96.30
13412;DHT22;67102;51.666;6.880;2023-03-13T06:57:30;15.80;95.80
13412;DHT22;67102;51.666;6.880;2023-03-13T06:59:57;15.80;95.70
13412;DHT22;67102;51.666;6.880;2023-03-13T07:02:23;15.80;95.60
13412;DHT22;67102;51.666;6.880;2023-03-13T07:07:15;15.90;95.10
13412;DHT22;67102;51.666;6.880;2023-03-13T07:09:42;15.90;95.40
13412;DHT22;67102;51.666;6.880;2023-03-13T07:12:08;16.00;94.70
13412;DHT22;67102;51.666;6.880;2023-03-13T07:14:34;16.00;94.70
13412;DHT22;67102;51.666;6.880;2023-03-13T07:17:02;16.00;95.00
13412;DHT22;67102;51.666;6.880;2023-03-13T07:24:20;16.10;94.30
13412;DHT22;67102;51.666;6.880;2023-03-13T07:26:46;16.20;94.90
13412;DHT22;67102;51.666;6.880;2023-03-13T07:29:12;16.20;94.40
13412;DHT22;67102;51.666;6.880;2023-03-13T07:31:38;16.30;94.50
13412;DHT22;67102;51.666;6.880;2023-03-13T07:34:05;16.30;94.30
13412;DHT22;67102;51.666;6.880;2023-03-13T07:36:31;16.30;94.30
13412;DHT22;67102;51.666;6.880;2023-03-13T07:38:57;16.30;93.90
13412;DHT22;67102;51.666;6.880;2023-03-13T07:41:23;16.30;94.00
13412;DHT22;67102;51.666;6.880;2023-03-13T07:43:49;16.40;93.90
13412;DHT22;67102;51.666;6.880;2023-03-13T07:46:16;16.40;93.80
13412;DHT22;67102;51.666;6.880;2023-03-13T07:48:43;16.40;93.60
13412;DHT22;67102;51.666;6.880;2023-03-13T07:51:12;16.40;93.50
13412;DHT22;67102;51.666;6.880;2023-03-13T07:53:39;16.40;93.40
13412;DHT22;67102;51.666;6.880;2023-03-13T07:56:07;16.40;93.40
13412;DHT22;67102;51.666;6.880;2023-03-13T07:58:36;16.50;93.20
13412;DHT22;67102;51.666;6.880;2023-03-13T08:01:08;16.50;93.20
13412;DHT22;67102;51.666;6.880;2023-03-13T08:03:34;16.50;93.20
13412;DHT22;67102;51.666;6.880;2023-03-13T08:06:02;16.50;93.00
13412;DHT22;67102;51.666;6.880;2023-03-13T08:08:30;16.50;92.80
13412;DHT22;67102;51.666;6.880;2023-03-13T08:11:00;16.60;92.80
13412;DHT22;67102;51.666;6.880;2023-03-13T08:13:26;16.50;92.80
13412;DHT22;67102;51.666;6.880;2023-03-13T08:15:59;16.60;92.60
13412;DHT22;67102;51.666;6.880;2023-03-13T08:18:26;16.60;92.60
13412;DHT22;67102;51.666;6.880;2023-03-13T08:20:52;16.60;92.40
13412;DHT22;67102;51.666;6.880;2023-03-13T08:23:18;16.60;92.40
13412;DHT22;67102;51.666;6.880;2023-03-13T08:25:45;16.60;92.50
13412;DHT22;67102;51.666;6.880;2023-03-13T08:28:11;16.70;92.50
13412;DHT22;67102;51.666;6.880;2023-03-13T08:30:37;16.70;92.40
13412;DHT22;67102;51.666;6.880;2023-03-13T08:33:03;16.80;92.30
13412;DHT22;67102;51.666;6.880;2023-03-13T08:35:29;16.70;92.30
13412;DHT22;67102;51.666;6.880;2023-03-13T08:37:55;16.80;92.20
13412;DHT22;67102;51.666;6.880;2023-03-13T08:40:21;16.80;92.20
13412;DHT22;67102;51.666;6.880;2023-03-13T08:42:48;16.80;92.20
13412;DHT22;67102;51.666;6.880;2023-03-13T08:45:14;16.90;92.00
13412;DHT22;67102;51.666;6.880;2023-03-13T08:47:40;16.90;91.90
13412;DHT22;67102;51.666;6.880;2023-03-13T08:50:07;16.90;91.70
13412;DHT22;67102;51.666;6.880;2023-03-13T08:52:33;16.90;91.50
13412;DHT22;67102;51.666;6.880;2023-03-13T08:54:59;16.90;91.70
13412;DHT22;67102;51.666;6.880;2023-03-13T08:57:25;16.90;91.60
13412;DHT22;67102;51.666;6.880;2023-03-13T08:59:52;17.00;91.80
13412;DHT22;67102;51.666;6.880;2023-03-13T09:02:18;17.00;91.70
13412;DHT22;67102;51.666;6.880;2023-03-13T09:04:45;17.10;91.90
13412;DHT22;67102;51.666;6.880;2023-03-13T09:07:12;17.10;92.00
13412;DHT22;67102;51.666;6.880;2023-03-13T09:09:39;17.30;92.20
13412;DHT22;67102;51.666;6.880;2023-03-13T09:12:05;17.40;92.00
13412;DHT22;67102;51.666;6.880;2023-03-13T09:14:32;17.50;91.70
13412;DHT22;67102;51.666;6.880;2023-03-13T09:16:59;17.70;91.50
13412;DHT22;67102;51.666;6.880;2023-03-13T09:19:25;17.80;91.50
13412;DHT22;67102;51.666;6.880;2023-03-13T09:21:51;17.90;90.90
13412;DHT22;67102;51.666;6.880;2023-03-13T09:24:17;18.00;90.90
13412;DHT22;67102;51.666;6.880;2023-03-13T09:26:43;17.90;91.10
13412;DHT22;67102;51.666;6.880;2023-03-13T09:29:09;18.20;90.50
13412;DHT22;67102;51.666;6.880;2023-03-13T09:31:35;18.30;90.60
13412;DHT22;67102;51.666;6.880;2023-03-13T09:34:03;18.30;90.00
13412;DHT22;67102;51.666;6.880;2023-03-13T09:36:29;18.40;89.40
13412;DHT22;67102;51.666;6.880;2023-03-13T09:38:56;18.40;89.10
13412;DHT22;67102;51.666;6.880;2023-03-13T09:41:26;18.50;89.40
13412;DHT22;67102;51.666;6.880;2023-03-13T09:44:02;18.50;88.60
13412;DHT22;67102;51.666;6.880;2023-03-13T09:46:37;18.50;88.40
13412;DHT22;67102;51.666;6.880;2023-03-13T09:49:11;18.50;88.20
13412;DHT22;67102;51.666;6.880;2023-03-13T09:51:42;18.50;88.50
13412;DHT22;67102;51.666;6.880;2023-03-13T09:54:18;18.40;87.80
13412;DHT22;67102;51.666;6.880;2023-03-13T09:56:52;18.50;87.40
13412;DHT22;67102;51.666;6.880;2023-03-13T09:59:25;18.50;87.00
13412;DHT22;67102;51.666;6.880;2023-03-13T10:01:56;18.60;87.40
13412;DHT22;67102;51.666;6.880;2023-03-13T10:04:38;18.60;87.30
13412;DHT22;67102;51.666;6.880;2023-03-13T10:07:09;18.60;87.00
13412;DHT22;67102;51.666;6.880;2023-03-13T10:09:36;18.70;87.50
13412;DHT22;67102;51.666;6.880;2023-03-13T10:12:06;18.70;87.50
13412;DHT22;67102;51.666;6.880;2023-03-13T10:14:41;18.70;87.50
13412;DHT22;67102;51.666;6.880;2023-03-13T10:17:14;18.80;85.70
13412;DHT22;67102;51.666;6.880;2023-03-13T10:19:54;18.80;85.50
13412;DHT22;67102;51.666;6.880;2023-03-13T10:22:25;18.90;85.70
13412;DHT22;67102;51.666;6.880;2023-03-13T10:24:55;18.90;84.90
13412;DHT22;67102;51.666;6.880;2023-03-13T10:27:23;18.90;85.30
13412;DHT22;67102;51.666;6.880;2023-03-13T10:29:49;18.90;85.20
13412;DHT22;67102;51.666;6.880;2023-03-13T10:32:16;19.00;86.90
13412;DHT22;67102;51.666;6.880;2023-03-13T10:34:54;19.10;85.90
13412;DHT22;67102;51.666;6.880;2023-03-13T10:37:23;19.10;84.70
13412;DHT22;67102;51.666;6.880;2023-03-13T10:39:50;19.30;84.10
13412;DHT22;67102;51.666;6.880;2023-03-13T10:42:20;19.40;81.00
13412;DHT22;67102;51.666;6.880;2023-03-13T10:44:55;19.50;84.00
13412;DHT22;67102;51.666;6.880;2023-03-13T10:47:23;19.60;81.60
13412;DHT22;67102;51.666;6.880;2023-03-13T10:49:51;19.80;83.30
13412;DHT22;67102;51.666;6.880;2023-03-13T10:52:29;20.00;83.00
13412;DHT22;67102;51.666;6.880;2023-03-13T10:55:01;20.10;80.00
13412;DHT22;67102;51.666;6.880;2023-03-13T10:57:31;20.20;81.20
13412;DHT22;67102;51.666;6.880;2023-03-13T10:59:58;20.40;78.90
13412;DHT22;67102;51.666;6.880;2023-03-13T11:02:27;20.40;77.70
13412;DHT22;67102;51.666;6.880;2023-03-13T11:04:57;20.50;77.60
13412;DHT22;67102;51.666;6.880;2023-03-13T11:07:29;20.50;77.40
13412;DHT22;67102;51.666;6.880;2023-03-13T11:09:59;20.50;77.10
13412;DHT22;67102;51.666;6.880;2023-03-13T11:12:26;20.60;78.30
13412;DHT22;67102;51.666;6.880;2023-03-13T11:14:57;20.60;76.30
13412;DHT22;67102;51.666;6.880;2023-03-13T11:17:29;20.60;76.70
13412;DHT22;67102;51.666;6.880;2023-03-13T11:20:06;20.60;76.70
13412;DHT22;67102;51.666;6.880;2023-03-13T11:22:46;20.60;76.50
13412;DHT22;67102;51.666;6.880;2023-03-13T11:25:22;20.70;77.40
13412;DHT22;67102;51.666;6.880;2023-03-13T11:28:02;20.70;77.00
13412;DHT22;67102;51.666;6.880;2023-03-13T11:30:56;20.80;75.80
13412;DHT22;67102;51.666;6.880;2023-03-13T11:33:33;20.70;75.10
13412;DHT22;67102;51.666;6.880;2023-03-13T11:36:09;20.80;75.70
13412;DHT22;67102;51.666;6.880;2023-03-13T11:38:41;20.80;72.00
13412;DHT22;67102;51.666;6.880;2023-03-13T11:41:21;20.80;73.40
13412;DHT22;67102;51.666;6.880;2023-03-13T11:47:04;20.70;72.20
13412;DHT22;67102;51.666;6.880;2023-03-13T11:49:49;20.70;72.60
13412;DHT22;67102;51.666;6.880;2023-03-13T11:52:29;20.60;73.60
13412;DHT22;67102;51.666;6.880;2023-03-13T11:55:24;20.70;73.50
13412;DHT22;67102;51.666;6.880;2023-03-13T11:58:03;20.60;73.00
13412;DHT22;67102;51.666;6.880;2023-03-13T12:00:37;20.60;72.70
13412;DHT22;67102;51.666;6.880;2023-03-13T12:03:15;20.60;73.30
13412;DHT22;67102;51.666;6.880;2023-03-13T12:05:45;20.60;71.10
13412;DHT22;67102;51.666;6.880;2023-03-13T12:08:20;20.50;72.90
13412;DHT22;67102;51.666;6.880;2023-03-13T12:10:58;20.50;73.30
13412;DHT22;67102;51.666;6.880;2023-03-13T12:13:32;20.50;72.80
13412;DHT22;67102;51.666;6.880;2023-03-13T12:16:06;20.50;72.70
13412;DHT22;67102;51.666;6.880;2023-03-13T12:18:36;20.50;72.70
13412;DHT22;67102;51.666;6.880;2023-03-13T12:21:06;20.50;72.30
13412;DHT22;67102;51.666;6.880;2023-03-13T12:23:47;20.40;71.70
13412;DHT22;67102;51.666;6.880;2023-03-13T12:26:18;20.40;72.90
13412;DHT22;67102;51.666;6.880;2023-03-13T12:28:50;20.50;72.80
13412;DHT22;67102;51.666;6.880;2023-03-13T12:31:26;20.50;72.40
13412;DHT22;67102;51.666;6.880;2023-03-13T12:34:00;20.60;70.80
13412;DHT22;67102;51.666;6.880;2023-03-13T12:36:34;20.60;71.70
13412;DHT22;67102;51.666;6.880;2023-03-13T12:39:14;20.60;72.20
13412;DHT22;67102;51.666;6.880;2023-03-13T12:41:51;20.70;72.00
13412;DHT22;67102;51.666;6.880;2023-03-13T12:44:25;20.80;72.20
13412;DHT22;67102;51.666;6.880;2023-03-13T12:47:00;20.80;71.60
13412;DHT22;67102;51.666;6.880;2023-03-13T12:49:48;20.90;69.50
13412;DHT22;67102;51.666;6.880;2023-03-13T12:52:41;20.90;68.50
13412;DHT22;67102;51.666;6.880;2023-03-13T12:55:30;20.90;68.20
13412;DHT22;67102;51.666;6.880;2023-03-13T12:58:36;20.90;67.10
13412;DHT22;67102;51.666;6.880;2023-03-13T13:01:20;20.90;65.40
13412;DHT22;67102;51.666;6.880;2023-03-13T13:03:55;20.90;67.60
13412;DHT22;67102;51.666;6.880;2023-03-13T13:06:22;20.90;67.10
13412;DHT22;67102;51.666;6.880;2023-03-13T13:09:02;20.90;65.80
13412;DHT22;67102;51.666;6.880;2023-03-13T13:11:48;20.90;65.80
13412;DHT22;67102;51.666;6.880;2023-03-13T13:18:01;20.90;66.30
13412;DHT22;67102;51.666;6.880;2023-03-13T13:20:41;21.00;66.80
13412;DHT22;67102;51.666;6.880;2023-03-13T13:23:25;21.00;68.30
13412;DHT22;67102;51.666;6.880;2023-03-13T13:25:55;21.00;67.70
13412;DHT22;67102;51.666;6.880;2023-03-13T13:32:33;21.20;69.80
13412;DHT22;67102;51.666;6.880;2023-03-13T13:35:23;21.30;70.60
13412;DHT22;67102;51.666;6.880;2023-03-13T13:41:02;21.50;69.40
13412;DHT22;67102;51.666;6.880;2023-03-13T13:43:32;21.50;69.40
13412;DHT22;67102;51.666;6.880;2023-03-13T13:46:03;21.50;68.20
13412;DHT22;67102;51.666;6.880;2023-03-13T13:48:31;21.50;67.20
13412;DHT22;67102;51.666;6.880;2023-03-13T13:53:54;21.50;64.50
13412;DHT22;67102;51.666;6.880;2023-03-13T13:56:34;21.40;66.00
13412;DHT22;67102;51.666;6.880;2023-03-13T13:59:30;21.40;65.30
13412;DHT22;67102;51.666;6.880;2023-03-13T14:02:22;21.40;66.40
13412;DHT22;67102;51.666;6.880;2023-03-13T14:04:55;21.30;65.60
13412;DHT22;67102;51.666;6.880;2023-03-13T14:07:29;21.30;66.20
13412;DHT22;67102;51.666;6.880;2023-03-13T14:10:06;21.20;64.60
13412;DHT22;67102;51.666;6.880;2023-03-13T14:12:45;21.20;64.00
13412;DHT22;67102;51.666;6.880;2023-03-13T14:15:15;21.10;64.00
13412;DHT22;67102;51.666;6.880;2023-03-13T14:17:45;21.00;64.40
13412;DHT22;67102;51.666;6.880;2023-03-13T14:20:25;20.90;64.40
13412;DHT22;67102;51.666;6.880;2023-03-13T14:22:57;20.90;63.80
13412;DHT22;67102;51.666;6.880;2023-03-13T14:25:24;20.90;64.50
13412;DHT22;67102;51.666;6.880;2023-03-13T14:27:52;20.90;65.50
13412;DHT22;67102;51.666;6.880;2023-03-13T14:30:21;20.90;65.00
13412;DHT22;67102;51.666;6.880;2023-03-13T14:32:50;20.90;65.30
13412;DHT22;67102;51.666;6.880;2023-03-13T14:35:17;20.90;65.10
13412;DHT22;67102;51.666;6.880;2023-03-13T14:37:45;20.90;65.50
13412;DHT22;67102;51.666;6.880;2023-03-13T14:40:22;20.90;65.60
13412;DHT22;67102;51.666;6.880;2023-03-13T14:42:51;20.90;65.60
13412;DHT22;67102;51.666;6.880;2023-03-13T14:45:25;20.90;65.50
13412;DHT22;67102;51.666;6.880;2023-03-13T14:47:59;20.90;64.90
13412;DHT22;67102;51.666;6.880;2023-03-13T14:50:26;20.90;65.60
13412;DHT22;67102;51.666;6.880;2023-03-13T14:52:55;20.90;63.70
13412;DHT22;67102;51.666;6.880;2023-03-13T14:55:30;20.90;63.50
13412;DHT22;67102;51.666;6.880;2023-03-13T14:57:58;20.90;62.50
13412;DHT22;67102;51.666;6.880;2023-03-13T15:00:37;20.90;62.40
13412;DHT22;67102;51.666;6.880;2023-03-13T15:03:30;20.80;62.80
13412;DHT22;67102;51.666;6.880;2023-03-13T15:06:14;20.90;63.50
13412;DHT22;67102;51.666;6.880;2023-03-13T15:08:43;20.90;64.60
13412;DHT22;67102;51.666;6.880;2023-03-13T15:11:25;20.90;64.60
13412;DHT22;67102;51.666;6.880;2023-03-13T15:13:52;20.80;63.90
13412;DHT22;67102;51.666;6.880;2023-03-13T15:16:21;20.80;65.00
13412;DHT22;67102;51.666;6.880;2023-03-13T15:18:49;20.70;64.50
13412;DHT22;67102;51.666;6.880;2023-03-13T15:21:20;20.70;65.20
13412;DHT22;67102;51.666;6.880;2023-03-13T15:23:53;20.70;65.30
13412;DHT22;67102;51.666;6.880;2023-03-13T15:26:20;20.70;66.80
13412;DHT22;67102;51.666;6.880;2023-03-13T15:28:47;20.70;67.70
13412;DHT22;67102;51.666;6.880;2023-03-13T15:31:13;20.70;68.20
13412;DHT22;67102;51.666;6.880;2023-03-13T15:33:40;20.80;68.60
13412;DHT22;67102;51.666;6.880;2023-03-13T15:36:09;20.90;68.60
13412;DHT22;67102;51.666;6.880;2023-03-13T15:38:35;20.90;69.10
13412;DHT22;67102;51.666;6.880;2023-03-13T15:41:01;21.00;66.80
13412;DHT22;67102;51.666;6.880;2023-03-13T15:43:27;21.10;66.50
13412;DHT22;67102;51.666;6.880;2023-03-13T15:45:53;21.10;65.60
13412;DHT22;67102;51.666;6.880;2023-03-13T15:48:21;21.10;64.90
13412;DHT22;67102;51.666;6.880;2023-03-13T15:50:49;21.10;63.90
13412;DHT22;67102;51.666;6.880;2023-03-13T15:53:19;21.00;63.50
13412;DHT22;67102;51.666;6.880;2023-03-13T15:55:47;20.90;63.20
13412;DHT22;67102;51.666;6.880;2023-03-13T15:58:14;20.90;63.90
13412;DHT22;67102;51.666;6.880;2023-03-13T16:00:41;20.80;64.00
13412;DHT22;67102;51.666;6.880;2023-03-13T16:03:12;20.70;64.10
13412;DHT22;67102;51.666;6.880;2023-03-13T16:05:39;20.60;63.60
13412;DHT22;67102;51.666;6.880;2023-03-13T16:08:05;20.60;64.30
13412;DHT22;67102;51.666;6.880;2023-03-13T16:10:33;20.40;63.10
13412;DHT22;67102;51.666;6.880;2023-03-13T16:12:59;20.50;63.90
13412;DHT22;67102;51.666;6.880;2023-03-13T16:15:25;20.40;64.10
13412;DHT22;67102;51.666;6.880;2023-03-13T16:17:51;20.40;64.00
13412;DHT22;67102;51.666;6.880;2023-03-13T16:20:20;20.30;64.00
13412;DHT22;67102;51.666;6.880;2023-03-13T16:22:47;20.20;64.30
13412;DHT22;67102;51.666;6.880;2023-03-13T16:25:13;20.20;64.50
13412;DHT22;67102;51.666;6.880;2023-03-13T16:27:41;20.10;64.50
13412;DHT22;67102;51.666;6.880;2023-03-13T16:30:14;20.60;65.00
13412;DHT22;67102;51.666;6.880;2023-03-13T16:32:41;20.00;64.80
13412;DHT22;67102;51.666;6.880;2023-03-13T16:35:07;19.90;65.00
13412;DHT22;67102;51.666;6.880;2023-03-13T16:37:33;19.90;65.10
13412;DHT22;67102;51.666;6.880;2023-03-13T16:39:59;19.80;65.40
13412;DHT22;67102;51.666;6.880;2023-03-13T16:42:25;19.70;65.30
13412;DHT22;67102;51.666;6.880;2023-03-13T16:44:54;19.70;65.10
13412;DHT22;67102;51.666;6.880;2023-03-13T16:47:22;19.60;65.50
13412;DHT22;67102;51.666;6.880;2023-03-13T16:49:52;19.60;65.60
13412;DHT22;67102;51.666;6.880;2023-03-13T16:52:18;19.50;65.60
13412;DHT22;67102;51.666;6.880;2023-03-13T16:54:45;19.40;65.80
13412;DHT22;67102;51.666;6.880;2023-03-13T16:57:13;19.40;65.80